sensor_id;sensor_type;location;lat;lon;timestamp;P1;durP1;ratioP1;P2;durP2;ratioP2
38220;SDS011;24023;51.280;7.148;2024-01-10T00:00:18;9.4;;;6.3;;
38220;SDS011;24023;51.280;7.148;2024-01-10T00:05:09;7.8;;;6.4;;
38220;SDS011;24023;51.280;7.148;2024-01-10T00:10:12;7.8;;;6.4;;
38220;SDS011;24023;51.280;7.148;2024-01-10T00:15:11;7.8;;;6.4;;
38220;SDS011;24023;51.280;7.148;2024-01-10T00:20:12;8.3;;;6.6;;
38220;SDS011;24023;51.280;7.148;2024-01-10T00:25:09;8.3;;;6.6;;
38220;SDS011;24023;51.280;7.148;2024-01-10T00:30:13;8.3;;;6.6;;
38220;SDS011;24023;51.280;7.148;2024-01-10T00:35:09;8.4;;;6.6;;
38220;SDS011;24023;51.280;7.148;2024-01-10T00:40:12;8.4;;;6.7;;
38220;SDS011;24023;51.280;7.148;2024-01-10T00:45:15;8.4;;;6.7;;
38220;SDS011;24023;51.280;7.148;2024-01-10T00:50:12;8.4;;;6.7;;
38220;SDS011;24023;51.280;7.148;2024-01-10T00:55:09;8.2;;;6.8;;
38220;SDS011;24023;51.280;7.148;2024-01-10T01:00:19;8.2;;;6.8;;
38220;SDS011;24023;51.280;7.148;2024-01-10T01:05:09;8.8;;;6.9;;
38220;SDS011;24023;51.280;7.148;2024-01-10T01:10:12;8.8;;;6.9;;
38220;SDS011;24023;51.280;7.148;2024-01-10T01:15:11;9.0;;;7.0;;
38220;SDS011;24023;51.280;7.148;2024-01-10T01:20:13;9.0;;;7.0;;
38220;SDS011;24023;51.280;7.148;2024-01-10T01:25:09;10.2;;;7.1;;
38220;SDS011;24023;51.280;7.148;2024-01-10T01:30:14;10.2;;;7.1;;
38220;SDS011;24023;51.280;7.148;2024-01-10T01:35:09;8.0;;;6.9;;
38220;SDS011;24023;51.280;7.148;2024-01-10T01:40:12;8.0;;;6.9;;
38220;SDS011;24023;51.280;7.148;2024-01-10T01:45:14;9.0;;;7.1;;
38220;SDS011;24023;51.280;7.148;2024-01-10T01:50:12;9.0;;;7.1;;
38220;SDS011;24023;51.280;7.148;2024-01-10T01:55:10;9.0;;;7.1;;
38220;SDS011;24023;51.280;7.148;2024-01-10T02:00:18;7.9;;;6.3;;
38220;SDS011;24023;51.280;7.148;2024-01-10T02:05:10;8.1;;;6.8;;
38220;SDS011;24023;51.280;7.148;2024-01-10T02:10:12;8.1;;;6.8;;
38220;SDS011;24023;51.280;7.148;2024-01-10T02:15:11;8.1;;;6.8;;
38220;SDS011;24023;51.280;7.148;2024-01-10T02:20:13;9.0;;;6.7;;
38220;SDS011;24023;51.280;7.148;2024-01-10T02:25:09;8.9;;;7.0;;
38220;SDS011;24023;51.280;7.148;2024-01-10T02:30:14;8.9;;;7.0;;
38220;SDS011;24023;51.280;7.148;2024-01-10T02:35:10;8.9;;;7.0;;
38220;SDS011;24023;51.280;7.148;2024-01-10T02:40:12;7.9;;;6.7;;
38220;SDS011;24023;51.280;7.148;2024-01-10T02:45:14;8.7;;;6.6;;
38220;SDS011;24023;51.280;7.148;2024-01-10T02:50:12;8.7;;;6.6;;
38220;SDS011;24023;51.280;7.148;2024-01-10T02:55:10;8.6;;;6.5;;
38220;SDS011;24023;51.280;7.148;2024-01-10T03:00:19;8.6;;;6.5;;
38220;SDS011;24023;51.280;7.148;2024-01-10T03:05:10;8.6;;;6.5;;
38220;SDS011;24023;51.280;7.148;2024-01-10T03:10:13;8.1;;;6.5;;
38220;SDS011;24023;51.280;7.148;2024-01-10T03:15:12;7.8;;;6.7;;
38220;SDS011;24023;51.280;7.148;2024-01-10T03:20:13;7.8;;;6.7;;
38220;SDS011;24023;51.280;7.148;2024-01-10T03:25:09;8.6;;;7.0;;
38220;SDS011;24023;51.280;7.148;2024-01-10T03:30:13;8.6;;;7.0;;
38220;SDS011;24023;51.280;7.148;2024-01-10T03:35:10;7.5;;;6.7;;
38220;SDS011;24023;51.280;7.148;2024-01-10T03:40:12;7.5;;;6.7;;
38220;SDS011;24023;51.280;7.148;2024-01-10T03:45:14;7.5;;;6.7;;
38220;SDS011;24023;51.280;7.148;2024-01-10T03:50:12;8.4;;;6.6;;
38220;SDS011;24023;51.280;7.148;2024-01-10T03:55:11;8.4;;;6.6;;
38220;SDS011;24023;51.280;7.148;2024-01-10T04:00:19;8.4;;;6.6;;
38220;SDS011;24023;51.280;7.148;2024-01-10T04:05:10;8.4;;;6.6;;
38220;SDS011;24023;51.280;7.148;2024-01-10T04:10:12;8.4;;;6.6;;
38220;SDS011;24023;51.280;7.148;2024-01-10T04:15:11;8.4;;;6.9;;
38220;SDS011;24023;51.280;7.148;2024-01-10T04:20:12;8.4;;;6.9;;
38220;SDS011;24023;51.280;7.148;2024-01-10T04:25:10;9.5;;;7.0;;
38220;SDS011;24023;51.280;7.148;2024-01-10T04:30:14;9.5;;;7.0;;
38220;SDS011;24023;51.280;7.148;2024-01-10T04:35:09;10.0;;;7.0;;
38220;SDS011;24023;51.280;7.148;2024-01-10T04:40:12;10.0;;;7.0;;
38220;SDS011;24023;51.280;7.148;2024-01-10T04:45:13;8.1;;;6.7;;
38220;SDS011;24023;51.280;7.148;2024-01-10T04:50:12;8.1;;;6.7;;
38220;SDS011;24023;51.280;7.148;2024-01-10T04:55:10;8.4;;;7.0;;
38220;SDS011;24023;51.280;7.148;2024-01-10T05:00:19;8.4;;;7.0;;
38220;SDS011;24023;51.280;7.148;2024-01-10T05:05:09;8.1;;;7.1;;
38220;SDS011;24023;51.280;7.148;2024-01-10T05:10:12;8.1;;;7.1;;
38220;SDS011;24023;51.280;7.148;2024-01-10T05:15:11;8.7;;;6.9;;
38220;SDS011;24023;51.280;7.148;2024-01-10T05:20:12;8.7;;;6.9;;
38220;SDS011;24023;51.280;7.148;2024-01-10T05:25:10;9.1;;;6.9;;
38220;SDS011;24023;51.280;7.148;2024-01-10T05:30:14;9.1;;;6.9;;
38220;SDS011;24023;51.280;7.148;2024-01-10T05:35:09;10.0;;;7.3;;
38220;SDS011;24023;51.280;7.148;2024-01-10T05:40:12;10.0;;;7.3;;
38220;SDS011;24023;51.280;7.148;2024-01-10T05:45:13;10.0;;;7.3;;
38220;SDS011;24023;51.280;7.148;2024-01-10T05:50:12;9.2;;;7.5;;
38220;SDS011;24023;51.280;7.148;2024-01-10T05:55:10;8.7;;;7.7;;
38220;SDS011;24023;51.280;7.148;2024-01-10T06:00:19;8.7;;;7.7;;
38220;SDS011;24023;51.280;7.148;2024-01-10T06:05:10;8.7;;;7.7;;
38220;SDS011;24023;51.280;7.148;2024-01-10T06:10:12;9.4;;;7.4;;
38220;SDS011;24023;51.280;7.148;2024-01-10T06:15:12;9.4;;;7.4;;
38220;SDS011;24023;51.280;7.148;2024-01-10T06:20:12;9.4;;;7.4;;
38220;SDS011;24023;51.280;7.148;2024-01-10T06:25:09;10.0;;;8.0;;
38220;SDS011;24023;51.280;7.148;2024-01-10T06:30:14;10.0;;;8.0;;
38220;SDS011;24023;51.280;7.148;2024-01-10T06:35:11;12.0;;;8.5;;
38220;SDS011;24023;51.280;7.148;2024-01-10T06:40:12;12.0;;;8.5;;
38220;SDS011;24023;51.280;7.148;2024-01-10T06:45:14;11.0;;;8.8;;
38220;SDS011;24023;51.280;7.148;2024-01-10T06:50:12;11.0;;;8.8;;
38220;SDS011;24023;51.280;7.148;2024-01-10T06:55:10;11.0;;;8.8;;
38220;SDS011;24023;51.280;7.148;2024-01-10T07:00:20;12.5;;;9.2;;
38220;SDS011;24023;51.280;7.148;2024-01-10T07:05:10;10.7;;;9.1;;
38220;SDS011;24023;51.280;7.148;2024-01-10T07:10:12;10.7;;;9.1;;
38220;SDS011;24023;51.280;7.148;2024-01-10T07:15:11;10.2;;;8.6;;
38220;SDS011;24023;51.280;7.148;2024-01-10T07:20:13;10.2;;;8.6;;
38220;SDS011;24023;51.280;7.148;2024-01-10T07:25:11;11.7;;;8.8;;
38220;SDS011;24023;51.280;7.148;2024-01-10T07:30:14;11.7;;;8.8;;
38220;SDS011;24023;51.280;7.148;2024-01-10T07:35:11;11.7;;;8.8;;
38220;SDS011;24023;51.280;7.148;2024-01-10T07:40:12;12.4;;;9.1;;
38220;SDS011;24023;51.280;7.148;2024-01-10T07:45:14;10.8;;;8.9;;
38220;SDS011;24023;51.280;7.148;2024-01-10T07:50:13;10.8;;;8.9;;
38220;SDS011;24023;51.280;7.148;2024-01-10T07:55:10;10.8;;;8.8;;
38220;SDS011;24023;51.280;7.148;2024-01-10T08:00:19;10.8;;;8.8;;
38220;SDS011;24023;51.280;7.148;2024-01-10T08:05:10;10.8;;;8.8;;
38220;SDS011;24023;51.280;7.148;2024-01-10T08:10:12;9.9;;;8.4;;
38220;SDS011;24023;51.280;7.148;2024-01-10T08:15:12;14.7;;;11.8;;
38220;SDS011;24023;51.280;7.148;2024-01-10T08:20:12;14.7;;;11.8;;
38220;SDS011;24023;51.280;7.148;2024-01-10T08:25:09;14.7;;;11.8;;
38220;SDS011;24023;51.280;7.148;2024-01-10T08:30:14;14.7;;;11.8;;
38220;SDS011;24023;51.280;7.148;2024-01-10T08:35:10;14.5;;;11.1;;
38220;SDS011;24023;51.280;7.148;2024-01-10T08:40:13;14.5;;;11.1;;
38220;SDS011;24023;51.280;7.148;2024-01-10T08:45:14;13.6;;;10.7;;
38220;SDS011;24023;51.280;7.148;2024-01-10T08:50:12;13.6;;;10.7;;
38220;SDS011;24023;51.280;7.148;2024-01-10T08:55:10;13.7;;;10.1;;
38220;SDS011;24023;51.280;7.148;2024-01-10T09:00:18;13.7;;;10.1;;
38220;SDS011;24023;51.280;7.148;2024-01-10T09:05:10;13.7;;;10.1;;
38220;SDS011;24023;51.280;7.148;2024-01-10T09:10:13;12.6;;;10.0;;
38220;SDS011;24023;51.280;7.148;2024-01-10T09:15:13;13.7;;;10.4;;
38220;SDS011;24023;51.280;7.148;2024-01-10T09:20:13;13.7;;;10.4;;
38220;SDS011;24023;51.280;7.148;2024-01-10T09:25:10;12.4;;;9.1;;
38220;SDS011;24023;51.280;7.148;2024-01-10T09:30:15;12.4;;;9.1;;
38220;SDS011;24023;51.280;7.148;2024-01-10T09:35:19;11.4;;;9.0;;
38220;SDS011;24023;51.280;7.148;2024-01-10T09:40:13;11.4;;;9.0;;
38220;SDS011;24023;51.280;7.148;2024-01-10T09:45:15;12.0;;;9.0;;
38220;SDS011;24023;51.280;7.148;2024-01-10T09:50:12;12.0;;;9.0;;
38220;SDS011;24023;51.280;7.148;2024-01-10T09:55:09;12.6;;;9.1;;
38220;SDS011;24023;51.280;7.148;2024-01-10T10:00:18;12.6;;;9.1;;
38220;SDS011;24023;51.280;7.148;2024-01-10T10:05:12;11.7;;;9.0;;
38220;SDS011;24023;51.280;7.148;2024-01-10T10:10:13;11.7;;;9.0;;
38220;SDS011;24023;51.280;7.148;2024-01-10T10:15:12;11.7;;;9.0;;
38220;SDS011;24023;51.280;7.148;2024-01-10T10:20:13;10.9;;;8.8;;
38220;SDS011;24023;51.280;7.148;2024-01-10T10:25:09;10.9;;;8.8;;
38220;SDS011;24023;51.280;7.148;2024-01-10T10:30:14;11.3;;;8.1;;
38220;SDS011;24023;51.280;7.148;2024-01-10T10:35:10;11.3;;;8.1;;
38220;SDS011;24023;51.280;7.148;2024-01-10T10:40:13;11.3;;;8.1;;
38220;SDS011;24023;51.280;7.148;2024-01-10T10:45:14;13.7;;;8.4;;
38220;SDS011;24023;51.280;7.148;2024-01-10T10:50:13;13.7;;;8.4;;
38220;SDS011;24023;51.280;7.148;2024-01-10T10:55:10;10.2;;;7.9;;
38220;SDS011;24023;51.280;7.148;2024-01-10T11:00:20;10.2;;;7.9;;
38220;SDS011;24023;51.280;7.148;2024-01-10T11:05:09;10.2;;;7.9;;
38220;SDS011;24023;51.280;7.148;2024-01-10T11:10:14;10.9;;;8.2;;
38220;SDS011;24023;51.280;7.148;2024-01-10T11:15:14;10.9;;;8.2;;
38220;SDS011;24023;51.280;7.148;2024-01-10T11:20:14;11.8;;;8.7;;
38220;SDS011;24023;51.280;7.148;2024-01-10T11:25:09;12.2;;;8.1;;
38220;SDS011;24023;51.280;7.148;2024-01-10T11:30:14;12.2;;;8.1;;
38220;SDS011;24023;51.280;7.148;2024-01-10T11:35:16;12.8;;;8.3;;
38220;SDS011;24023;51.280;7.148;2024-01-10T11:40:13;12.8;;;8.3;;
38220;SDS011;24023;51.280;7.148;2024-01-10T11:45:16;10.1;;;8.0;;
38220;SDS011;24023;51.280;7.148;2024-01-10T11:50:13;10.1;;;8.0;;
38220;SDS011;24023;51.280;7.148;2024-01-10T11:55:12;10.1;;;8.0;;
38220;SDS011;24023;51.280;7.148;2024-01-10T12:00:19;10.8;;;8.0;;
38220;SDS011;24023;51.280;7.148;2024-01-10T12:05:09;9.1;;;7.5;;
38220;SDS011;24023;51.280;7.148;2024-01-10T12:10:12;9.1;;;7.5;;
38220;SDS011;24023;51.280;7.148;2024-01-10T12:15:11;9.1;;;7.5;;
38220;SDS011;24023;51.280;7.148;2024-01-10T12:20:13;7.9;;;6.5;;
38220;SDS011;24023;51.280;7.148;2024-01-10T12:25:10;11.3;;;6.7;;
38220;SDS011;24023;51.280;7.148;2024-01-10T12:30:13;11.3;;;6.7;;
38220;SDS011;24023;51.280;7.148;2024-01-10T12:35:09;8.3;;;6.2;;
38220;SDS011;24023;51.280;7.148;2024-01-10T12:40:13;8.3;;;6.2;;
38220;SDS011;24023;51.280;7.148;2024-01-10T12:45:27;9.3;;;7.1;;
38220;SDS011;24023;51.280;7.148;2024-01-10T12:50:13;9.3;;;7.1;;
38220;SDS011;24023;51.280;7.148;2024-01-10T12:55:10;8.3;;;6.9;;
38220;SDS011;24023;51.280;7.148;2024-01-10T13:00:19;8.3;;;6.9;;
38220;SDS011;24023;51.280;7.148;2024-01-10T13:05:10;8.3;;;6.9;;
38220;SDS011;24023;51.280;7.148;2024-01-10T13:10:12;9.2;;;7.2;;
38220;SDS011;24023;51.280;7.148;2024-01-10T13:15:11;9.6;;;6.7;;
38220;SDS011;24023;51.280;7.148;2024-01-10T13:20:12;9.6;;;6.7;;
38220;SDS011;24023;51.280;7.148;2024-01-10T13:25:10;13.0;;;10.4;;
38220;SDS011;24023;51.280;7.148;2024-01-10T13:30:14;13.0;;;10.4;;
38220;SDS011;24023;51.280;7.148;2024-01-10T13:35:10;14.8;;;10.5;;
38220;SDS011;24023;51.280;7.148;2024-01-10T13:40:13;14.8;;;10.5;;
38220;SDS011;24023;51.280;7.148;2024-01-10T13:45:14;14.8;;;10.5;;
38220;SDS011;24023;51.280;7.148;2024-01-10T13:50:12;14.0;;;9.9;;
38220;SDS011;24023;51.280;7.148;2024-01-10T13:55:11;13.4;;;11.2;;
38220;SDS011;24023;51.280;7.148;2024-01-10T14:00:20;13.4;;;11.2;;
38220;SDS011;24023;51.280;7.148;2024-01-10T14:05:10;13.4;;;11.2;;
38220;SDS011;24023;51.280;7.148;2024-01-10T14:10:15;14.9;;;11.1;;
38220;SDS011;24023;51.280;7.148;2024-01-10T14:15:11;16.5;;;12.2;;
38220;SDS011;24023;51.280;7.148;2024-01-10T14:20:12;16.5;;;12.2;;
38220;SDS011;24023;51.280;7.148;2024-01-10T14:25:11;17.2;;;13.0;;
38220;SDS011;24023;51.280;7.148;2024-01-10T14:30:14;17.2;;;13.0;;
38220;SDS011;24023;51.280;7.148;2024-01-10T14:35:10;18.1;;;14.3;;
38220;SDS011;24023;51.280;7.148;2024-01-10T14:40:12;18.1;;;14.3;;
38220;SDS011;24023;51.280;7.148;2024-01-10T14:45:14;19.0;;;14.9;;
38220;SDS011;24023;51.280;7.148;2024-01-10T14:50:12;19.0;;;14.9;;
38220;SDS011;24023;51.280;7.148;2024-01-10T14:55:10;19.0;;;14.9;;
38220;SDS011;24023;51.280;7.148;2024-01-10T15:00:19;22.1;;;16.3;;
38220;SDS011;24023;51.280;7.148;2024-01-10T15:05:10;22.1;;;16.3;;
38220;SDS011;24023;51.280;7.148;2024-01-10T15:10:12;22.1;;;16.3;;
38220;SDS011;24023;51.280;7.148;2024-01-10T15:15:11;22.1;;;16.3;;
38220;SDS011;24023;51.280;7.148;2024-01-10T15:20:12;22.4;;;16.6;;
38220;SDS011;24023;51.280;7.148;2024-01-10T15:25:10;22.4;;;16.6;;
38220;SDS011;24023;51.280;7.148;2024-01-10T15:30:14;22.2;;;15.9;;
38220;SDS011;24023;51.280;7.148;2024-01-10T15:35:10;22.2;;;15.9;;
38220;SDS011;24023;51.280;7.148;2024-01-10T15:40:12;22.2;;;15.9;;
38220;SDS011;24023;51.280;7.148;2024-01-10T15:45:14;19.6;;;15.1;;
38220;SDS011;24023;51.280;7.148;2024-01-10T15:50:12;19.6;;;15.1;;
38220;SDS011;24023;51.280;7.148;2024-01-10T15:55:10;21.3;;;16.0;;
38220;SDS011;24023;51.280;7.148;2024-01-10T16:00:18;19.6;;;15.5;;
38220;SDS011;24023;51.280;7.148;2024-01-10T16:05:10;19.6;;;15.5;;
38220;SDS011;24023;51.280;7.148;2024-01-10T16:10:12;19.6;;;15.5;;
38220;SDS011;24023;51.280;7.148;2024-01-10T16:15:12;19.6;;;15.5;;
38220;SDS011;24023;51.280;7.148;2024-01-10T16:20:13;19.6;;;15.5;;
38220;SDS011;24023;51.280;7.148;2024-01-10T16:25:09;22.9;;;16.6;;
38220;SDS011;24023;51.280;7.148;2024-01-10T16:30:13;22.9;;;16.6;;
38220;SDS011;24023;51.280;7.148;2024-01-10T16:35:10;22.3;;;16.6;;
38220;SDS011;24023;51.280;7.148;2024-01-10T16:40:13;22.3;;;16.6;;
38220;SDS011;24023;51.280;7.148;2024-01-10T16:45:14;21.5;;;16.3;;
38220;SDS011;24023;51.280;7.148;2024-01-10T16:50:12;21.5;;;16.3;;
38220;SDS011;24023;51.280;7.148;2024-01-10T16:55:09;21.6;;;16.5;;
38220;SDS011;24023;51.280;7.148;2024-01-10T17:00:19;21.6;;;16.5;;
38220;SDS011;24023;51.280;7.148;2024-01-10T17:05:10;21.6;;;16.5;;
38220;SDS011;24023;51.280;7.148;2024-01-10T17:10:12;21.0;;;16.4;;
38220;SDS011;24023;51.280;7.148;2024-01-10T17:15:15;22.9;;;17.2;;
38220;SDS011;24023;51.280;7.148;2024-01-10T17:20:13;22.9;;;17.2;;
38220;SDS011;24023;51.280;7.148;2024-01-10T17:25:10;21.7;;;16.9;;
38220;SDS011;24023;51.280;7.148;2024-01-10T17:30:13;23.4;;;16.6;;
38220;SDS011;24023;51.280;7.148;2024-01-10T17:35:10;23.4;;;16.6;;
38220;SDS011;24023;51.280;7.148;2024-01-10T17:40:12;23.4;;;16.6;;
38220;SDS011;24023;51.280;7.148;2024-01-10T17:45:13;21.9;;;17.0;;
38220;SDS011;24023;51.280;7.148;2024-01-10T17:50:12;21.9;;;17.0;;
38220;SDS011;24023;51.280;7.148;2024-01-10T17:55:10;27.2;;;20.7;;
38220;SDS011;24023;51.280;7.148;2024-01-10T18:00:19;22.2;;;18.4;;
38220;SDS011;24023;51.280;7.148;2024-01-10T18:05:09;22.2;;;18.4;;
38220;SDS011;24023;51.280;7.148;2024-01-10T18:10:12;22.2;;;18.4;;
38220;SDS011;24023;51.280;7.148;2024-01-10T18:15:11;19.2;;;16.4;;
38220;SDS011;24023;51.280;7.148;2024-01-10T18:20:13;19.2;;;16.4;;
38220;SDS011;24023;51.280;7.148;2024-01-10T18:25:09;18.2;;;14.7;;
38220;SDS011;24023;51.280;7.148;2024-01-10T18:30:14;18.2;;;14.7;;
38220;SDS011;24023;51.280;7.148;2024-01-10T18:35:10;19.2;;;15.2;;
38220;SDS011;24023;51.280;7.148;2024-01-10T18:40:13;19.2;;;15.2;;
38220;SDS011;24023;51.280;7.148;2024-01-10T18:45:14;19.2;;;15.2;;
38220;SDS011;24023;51.280;7.148;2024-01-10T18:50:12;20.3;;;15.3;;
38220;SDS011;24023;51.280;7.148;2024-01-10T18:55:09;18.6;;;15.0;;
38220;SDS011;24023;51.280;7.148;2024-01-10T19:00:19;18.6;;;15.0;;
38220;SDS011;24023;51.280;7.148;2024-01-10T19:05:10;19.0;;;14.2;;
38220;SDS011;24023;51.280;7.148;2024-01-10T19:10:12;19.0;;;14.2;;
38220;SDS011;24023;51.280;7.148;2024-01-10T19:15:11;17.1;;;14.1;;
38220;SDS011;24023;51.280;7.148;2024-01-10T19:20:12;18.9;;;14.6;;
38220;SDS011;24023;51.280;7.148;2024-01-10T19:25:10;18.9;;;14.6;;
38220;SDS011;24023;51.280;7.148;2024-01-10T19:30:21;18.9;;;14.6;;
38220;SDS011;24023;51.280;7.148;2024-01-10T19:35:10;18.6;;;14.8;;
38220;SDS011;24023;51.280;7.148;2024-01-10T19:40:12;18.6;;;14.8;;
38220;SDS011;24023;51.280;7.148;2024-01-10T19:45:14;19.8;;;15.8;;
38220;SDS011;24023;51.280;7.148;2024-01-10T19:50:12;19.8;;;15.8;;
38220;SDS011;24023;51.280;7.148;2024-01-10T19:55:10;19.8;;;15.8;;
38220;SDS011;24023;51.280;7.148;2024-01-10T20:00:22;20.0;;;15.3;;
38220;SDS011;24023;51.280;7.148;2024-01-10T20:05:11;20.0;;;15.3;;
38220;SDS011;24023;51.280;7.148;2024-01-10T20:10:13;20.4;;;16.6;;
38220;SDS011;24023;51.280;7.148;2024-01-10T20:15:12;20.5;;;15.0;;
38220;SDS011;24023;51.280;7.148;2024-01-10T20:20:12;18.9;;;15.2;;
38220;SDS011;24023;51.280;7.148;2024-01-10T20:25:10;18.9;;;15.2;;
38220;SDS011;24023;51.280;7.148;2024-01-10T20:30:14;18.9;;;15.2;;
38220;SDS011;24023;51.280;7.148;2024-01-10T20:35:10;20.1;;;15.8;;
38220;SDS011;24023;51.280;7.148;2024-01-10T20:40:13;20.1;;;15.8;;
38220;SDS011;24023;51.280;7.148;2024-01-10T20:45:16;20.1;;;15.8;;
38220;SDS011;24023;51.280;7.148;2024-01-10T20:50:13;19.6;;;15.4;;
38220;SDS011;24023;51.280;7.148;2024-01-10T20:55:10;19.6;;;15.4;;
38220;SDS011;24023;51.280;7.148;2024-01-10T21:00:23;19.4;;;14.7;;
38220;SDS011;24023;51.280;7.148;2024-01-10T21:05:10;19.4;;;14.7;;
38220;SDS011;24023;51.280;7.148;2024-01-10T21:10:12;19.4;;;14.7;;
38220;SDS011;24023;51.280;7.148;2024-01-10T21:15:11;19.1;;;15.3;;
38220;SDS011;24023;51.280;7.148;2024-01-10T21:20:12;19.1;;;15.3;;
38220;SDS011;24023;51.280;7.148;2024-01-10T21:25:10;18.4;;;15.1;;
38220;SDS011;24023;51.280;7.148;2024-01-10T21:30:14;18.4;;;15.1;;
38220;SDS011;24023;51.280;7.148;2024-01-10T21:35:10;19.9;;;16.5;;
38220;SDS011;24023;51.280;7.148;2024-01-10T21:40:12;24.3;;;18.2;;
38220;SDS011;24023;51.280;7.148;2024-01-10T21:45:14;24.3;;;18.2;;
38220;SDS011;24023;51.280;7.148;2024-01-10T21:50:12;20.9;;;17.2;;
38220;SDS011;24023;51.280;7.148;2024-01-10T21:55:09;20.9;;;17.2;;
38220;SDS011;24023;51.280;7.148;2024-01-10T22:00:19;18.5;;;15.4;;
38220;SDS011;24023;51.280;7.148;2024-01-10T22:05:10;18.5;;;15.4;;
38220;SDS011;24023;51.280;7.148;2024-01-10T22:10:13;19.6;;;17.1;;
38220;SDS011;24023;51.280;7.148;2024-01-10T22:15:11;19.6;;;17.1;;
38220;SDS011;24023;51.280;7.148;2024-01-10T22:20:13;21.6;;;16.4;;
38220;SDS011;24023;51.280;7.148;2024-01-10T22:25:10;21.6;;;16.4;;
38220;SDS011;24023;51.280;7.148;2024-01-10T22:30:14;18.1;;;14.9;;
38220;SDS011;24023;51.280;7.148;2024-01-10T22:35:10;18.1;;;14.9;;
38220;SDS011;24023;51.280;7.148;2024-01-10T22:40:12;16.6;;;13.2;;
38220;SDS011;24023;51.280;7.148;2024-01-10T22:45:15;16.6;;;13.2;;
38220;SDS011;24023;51.280;7.148;2024-01-10T22:50:15;16.6;;;13.2;;
38220;SDS011;24023;51.280;7.148;2024-01-10T22:55:10;17.8;;;14.6;;
38220;SDS011;24023;51.280;7.148;2024-01-10T23:00:24;22.2;;;16.9;;
38220;SDS011;24023;51.280;7.148;2024-01-10T23:05:12;22.2;;;16.9;;
38220;SDS011;24023;51.280;7.148;2024-01-10T23:10:12;20.3;;;16.8;;
38220;SDS011;24023;51.280;7.148;2024-01-10T23:15:11;20.3;;;16.8;;
38220;SDS011;24023;51.280;7.148;2024-01-10T23:20:12;20.3;;;16.8;;
38220;SDS011;24023;51.280;7.148;2024-01-10T23:25:11;20.5;;;16.0;;
38220;SDS011;24023;51.280;7.148;2024-01-10T23:30:14;20.5;;;16.0;;
38220;SDS011;24023;51.280;7.148;2024-01-10T23:35:10;20.3;;;16.1;;
38220;SDS011;24023;51.280;7.148;2024-01-10T23:40:12;20.3;;;16.1;;
38220;SDS011;24023;51.280;7.148;2024-01-10T23:45:14;20.3;;;16.1;;
38220;SDS011;24023;51.280;7.148;2024-01-10T23:50:12;20.3;;;16.4;;
38220;SDS011;24023;51.280;7.148;2024-01-10T23:55:10;20.3;;;16.4;;
